Minot, ND

11:15 PM CDT on April 27, 2015 (GMT -0500)
Edgeview Estates | | Change Station
CLOSE
Current Station
Personal Weather Station
Location: Minot, ND
Elevation: 1752 ft
Nearby Weather Stations

Elev 1752 ft 48.21 °N, 101.33 °W | Updated 2 seconds ago

Clear
Clear
43.9 °F
Feels Like 39 °F
N
8.0
Wind Variable Wind from North
Gusts 11.0 mph

Today
High -- | Low -- °F
--% Chance of Precip.
Yesterday
High -- | Low -- °F
Precip. -- in
6:33 AM 8:53 PM
Waxing Gibbous, 70% visible
Pressure 30.31 in
Visibility 10.0 miles
Clouds Clear
Windchill 39 °F
Dew Point 38 °F
Humidity 80%
Rainfall 0.22 in
Snow Depth Not available.
UV 0 out of 12
Pollen 4.70 out of 12
Air Quality Not available.
Flu Activity Regional
METAR KMOT 280354Z AUTO 22008KT 10SM CLR 06/03 A3027 RMK AO2 SLP264 T00610033

More Conditions Fewer Conditions

Pressure 30.31 in
Visibility 10.0 miles
Clouds Clear
Windchill 39 °F
Dew Point 38 °F
Humidity 80%
Rainfall 0.22 in
Snow Depth Not available.
UV 0 out of 12
Pollen 4.70 out of 12
Air Quality Not available.
Flu Activity Regional
METAR KMOT 280354Z AUTO 22008KT 10SM CLR 06/03 A3027 RMK AO2 SLP264 T00610033

More Conditions Fewer Conditions

10-Day Weather Forecast

Almanac

Astronomy

Apr. 27, 2015 Rise Set
Actual Time
Civil Twilight
Nautical Twilight
Astronomical Twilight
Moon
Length of Visible Light
Length of Day
Tomorrow will be .
, % of the Moon is Illuminated

Today's Extremes

State Highs State Lows

Community

WunderPhotos

Upload Photos

1,817,575 photos uploaded!

WunderBlogs® & News

Nearby

Air Quality

  Air Quality AQ Index Pollutant
Not available.

Snow Depth

Station Depth Elevation

Earthquake Activity

City Distance Mag. Time & Date
Minimum magnitude displayed is 2.5.

Coastal Water Temperatures

Place Temperature

Stations

Nearby Weather Stations

Station Location Temp. Windchill Dew Point Humidity Wind Precip. Elev Updated Type